createdAt,value
2023-04-10T00:01:16.510Z,7.2
2023-04-10T00:04:16.985Z,2.3625
2023-04-10T00:07:17.479Z,4.025
2023-04-10T00:11:16.818Z,1.6875
2023-04-10T00:14:23.561Z,2.6500000000000004
2023-04-10T00:17:17.055Z,4.300000000000001
2023-04-10T00:21:16.759Z,3.725
2023-04-10T00:24:17.021Z,1.3499999999999999
2023-04-10T00:27:16.887Z,2.3625
2023-04-10T00:31:16.505Z,2.9625
2023-04-10T00:34:16.673Z,2.7375
2023-04-10T00:37:16.834Z,4.2875
2023-04-10T00:41:16.494Z,3.075
2023-04-10T00:44:16.851Z,2.5749999999999997
2023-04-10T00:47:17.044Z,4.6
2023-04-10T00:51:16.686Z,3.1125
2023-04-10T00:54:17.472Z,3.5374999999999996
2023-04-10T00:57:17.489Z,2.1125
2023-04-10T01:01:16.799Z,3.4875
2023-04-10T01:04:17.860Z,4.2875
2023-04-10T01:07:32.116Z,3.5625
2023-04-10T01:11:24.277Z,2.4625
2023-04-10T01:14:27.134Z,4.1875
2023-04-10T01:17:26.750Z,2.7
2023-04-10T01:21:17.444Z,2.725
2023-04-10T01:24:34.093Z,2.7625
2023-04-10T01:27:35.254Z,4.0125
2023-04-10T01:31:19.941Z,2.9625
2023-04-10T01:34:21.478Z,3.25
2023-04-10T01:37:20.317Z,3.325
2023-04-10T01:41:17.899Z,2.6500000000000004
2023-04-10T01:44:20.725Z,3.6125
2023-04-10T01:47:17.556Z,2.1500000000000004
2023-04-10T01:51:17.955Z,3.1
2023-04-10T01:54:17.507Z,4.275
2023-04-10T01:57:16.964Z,7.1625
2023-04-10T02:01:29.132Z,6.25
2023-04-10T02:04:17.562Z,5.449999999999999
2023-04-10T02:07:24.628Z,5.112500000000001
2023-04-10T02:11:24.266Z,3.275
2023-04-10T02:14:19.694Z,4.9
2023-04-10T02:17:22.312Z,3.1
2023-04-10T02:21:17.167Z,5.0375
2023-04-10T02:24:18.056Z,7.175000000000001
2023-04-10T02:27:27.275Z,2.6500000000000004
2023-04-10T02:31:16.804Z,6.1625
2023-04-10T02:34:17.084Z,2.325
2023-04-10T02:37:17.300Z,1.6875
2023-04-10T02:41:16.311Z,2.1
2023-04-10T02:44:16.707Z,3.25
2023-04-10T02:47:16.814Z,1.7875
2023-04-10T02:51:16.535Z,2.25
2023-04-10T02:54:16.589Z,2.5124999999999997
2023-04-10T02:57:16.816Z,3.0999999999999996
2023-04-10T03:01:16.622Z,2.4000000000000004
2023-04-10T03:04:17.059Z,2.6125000000000003
2023-04-10T03:07:17.426Z,2.175
2023-04-10T03:11:16.156Z,2.725
2023-04-10T03:14:17.428Z,1.9125
2023-04-10T03:17:16.674Z,2.9125
2023-04-10T03:21:16.264Z,2.45
2023-04-10T03:24:16.823Z,1.975
2023-04-10T03:27:16.782Z,1.5875
2023-04-10T03:31:16.549Z,3.4375
2023-04-10T03:34:17.567Z,1.7125
2023-04-10T03:37:16.810Z,2.425
2023-04-10T03:41:16.707Z,5.675000000000001
2023-04-10T03:44:17.412Z,1.9375
2023-04-10T03:47:17.033Z,4.0125
2023-04-10T03:51:16.410Z,2.5125
2023-04-10T03:54:16.924Z,2.3125
2023-04-10T03:57:18.970Z,3.1125000000000003
2023-04-10T04:01:16.528Z,2.2125000000000004
2023-04-10T04:04:16.984Z,2.8625
2023-04-10T04:07:16.798Z,2.3875
2023-04-10T04:11:16.389Z,3.0875000000000004
2023-04-10T04:14:17.020Z,3.1875
2023-04-10T04:17:16.725Z,2.3499999999999996
2023-04-10T04:21:16.117Z,1.5875
2023-04-10T04:24:16.629Z,1.1875
2023-04-10T04:27:16.463Z,4.55
2023-04-10T04:31:16.678Z,3.3
2023-04-10T04:41:18.232Z,2.4000000000000004
2023-04-10T04:44:18.272Z,3.2625
2023-04-10T04:47:17.499Z,3.3874999999999997
2023-04-10T04:51:16.504Z,4.95
2023-04-10T05:01:17.389Z,2.0375
2023-04-10T05:04:17.685Z,3.3875
2023-04-10T05:07:17.449Z,2.375
2023-04-10T05:11:16.691Z,2.5625
2023-04-10T05:14:17.164Z,4.025
2023-04-10T05:17:17.506Z,3.1375
2023-04-10T05:21:17.043Z,4.25
2023-04-10T05:31:16.344Z,2.575
2023-04-10T05:34:17.408Z,3.925
2023-04-10T05:37:16.530Z,2.675
2023-04-10T05:41:16.738Z,1.6625
2023-04-10T05:44:16.680Z,5.1125
2023-04-10T05:51:16.373Z,5.875
2023-04-10T05:54:16.610Z,3.3875
2023-04-10T05:57:16.420Z,4.987500000000001
2023-04-10T06:01:16.464Z,1.8750000000000002
2023-04-10T06:04:17.157Z,2.2
2023-04-10T06:07:17.149Z,2.9749999999999996
2023-04-10T06:11:17.426Z,4.7375
2023-04-10T06:14:18.206Z,4.175
2023-04-10T06:17:17.480Z,3
2023-04-10T06:21:16.870Z,3.4375
2023-04-10T06:24:17.014Z,2.8625
2023-04-10T06:27:17.073Z,3.5124999999999997
2023-04-10T06:31:19.354Z,8.1
2023-04-10T06:34:17.408Z,3.7625
2023-04-10T06:37:17.436Z,7.05
2023-04-10T06:41:17.058Z,6.2375
2023-04-10T06:44:17.539Z,7.387499999999999
2023-04-10T06:47:18.765Z,8.15
2023-04-10T06:51:16.838Z,6.987500000000001
2023-04-10T06:54:17.321Z,6.074999999999999
2023-04-10T06:57:17.557Z,3.275
2023-04-10T07:01:18.056Z,2.7125000000000004
2023-04-10T07:04:16.806Z,3.425
2023-04-10T07:07:16.899Z,3.1375
2023-04-10T07:11:17.066Z,2.675
2023-04-10T07:14:17.523Z,4.05
2023-04-10T07:17:17.485Z,4.3125
2023-04-10T07:21:17.034Z,4.45
2023-04-10T07:24:18.159Z,3.1125
2023-04-10T07:27:17.727Z,7.9625
2023-04-10T07:31:18.399Z,5.975
2023-04-10T07:34:17.801Z,3.5874999999999995
2023-04-10T07:37:18.419Z,3.1750000000000003
2023-04-10T07:41:16.168Z,12.05
2023-04-10T07:44:18.060Z,2.4625000000000004
2023-04-10T07:47:16.619Z,3.25
2023-04-10T07:51:16.420Z,2.9250000000000003
2023-04-10T07:54:16.620Z,2.5
2023-04-10T07:57:16.917Z,3.35
2023-04-10T08:01:16.844Z,2.2375000000000003
2023-04-10T08:04:17.236Z,2.0875
2023-04-10T08:07:19.538Z,2.8
2023-04-10T08:11:25.846Z,3.2249999999999996
2023-04-10T08:14:18.077Z,2.05
2023-04-10T08:17:16.668Z,4.725
2023-04-10T08:21:16.549Z,3.125
2023-04-10T08:24:20.112Z,2.975
2023-04-10T08:27:17.588Z,2.9875
2023-04-10T08:31:16.260Z,3.3125
2023-04-10T08:34:16.433Z,3.6625
2023-04-10T08:37:16.581Z,3.7250000000000005
2023-04-10T08:41:19.019Z,2.4
2023-04-10T08:44:17.205Z,2.2625
2023-04-10T08:47:20.571Z,3.3375
2023-04-10T08:51:20.353Z,2.85
2023-04-10T08:54:18.998Z,2.6625
2023-04-10T08:57:20.846Z,2.9625
2023-04-10T09:01:19.171Z,2.05
2023-04-10T09:04:18.578Z,2.7874999999999996
2023-04-10T09:07:17.068Z,2.175
2023-04-10T09:11:16.149Z,1.75
2023-04-10T09:14:20.728Z,2.1
2023-04-10T09:17:18.658Z,1.725
2023-04-10T09:21:18.531Z,3.2875
2023-04-10T09:24:17.418Z,2.2625
2023-04-10T09:27:35.015Z,2.025
2023-04-10T09:31:28.154Z,4.75
2023-04-10T09:34:18.236Z,5.1625
2023-04-10T09:37:18.682Z,1.9000000000000001
2023-04-10T09:41:16.436Z,2
2023-04-10T09:44:18.387Z,7.875
2023-04-10T09:47:18.811Z,4.025
2023-04-10T09:51:27.919Z,5.85
2023-04-10T09:54:16.729Z,2.3000000000000003
2023-04-10T09:57:18.111Z,1.925
2023-04-10T10:01:17.376Z,2.0875
2023-04-10T10:04:18.244Z,2.0625
2023-04-10T10:07:22.322Z,2.1125
2023-04-10T10:11:22.397Z,1.5875
2023-04-10T10:14:19.577Z,1.7625
2023-04-10T10:17:22.974Z,1.3499999999999999
2023-04-10T10:21:18.021Z,1.1875
2023-04-10T10:24:19.483Z,1.4625
2023-04-10T10:27:18.634Z,1.6375000000000002
2023-04-10T10:31:18.669Z,2.625
2023-04-10T10:34:17.074Z,2.325
2023-04-10T10:37:17.884Z,3.625
2023-04-10T10:41:24.111Z,3.575
2023-04-10T10:44:26.102Z,4.55
2023-04-10T10:47:21.941Z,4.175000000000001
2023-04-10T10:51:16.674Z,3.35
2023-04-10T10:54:34.094Z,3.0125
2023-04-10T10:57:45.316Z,3.3625
2023-04-10T11:01:17.879Z,3.6125
2023-04-10T11:04:43.274Z,3.1375
2023-04-10T11:07:17.566Z,3.3625
2023-04-10T11:11:18.537Z,3.0625
2023-04-10T11:14:19.159Z,3.475
2023-04-10T11:17:46.141Z,4
2023-04-10T11:21:18.111Z,3.8249999999999997
2023-04-10T11:24:16.915Z,5.9875
2023-04-10T11:27:39.291Z,7.875
2023-04-10T11:31:18.649Z,10.0125
2023-04-10T11:34:17.513Z,6.35
2023-04-10T11:37:22.403Z,6.5625
2023-04-10T11:41:17.621Z,8.125
2023-04-10T11:44:27.477Z,20.8625
2023-04-10T11:47:17.472Z,17.35
2023-04-10T11:51:17.994Z,7.95
2023-04-10T11:54:20.766Z,12.4875
2023-04-10T11:57:18.731Z,4.3875
2023-04-10T12:01:20.997Z,3.9250000000000003
2023-04-10T12:04:19.522Z,4.0625
2023-04-10T12:07:23.015Z,3.25
2023-04-10T12:11:20.231Z,3.15
2023-04-10T12:14:19.746Z,2.9749999999999996
2023-04-10T12:17:16.740Z,2.9124999999999996
2023-04-10T12:21:17.877Z,3.0999999999999996
2023-04-10T12:24:42.264Z,3.9375000000000004
2023-04-10T12:27:21.595Z,3.9625000000000004
2023-04-10T12:31:16.907Z,2.5875000000000004
2023-04-10T12:34:18.680Z,2.725
2023-04-10T12:37:17.501Z,5.8375
2023-04-10T12:41:22.024Z,3.5875000000000004
2023-04-10T12:44:19.278Z,4.025
2023-04-10T12:47:18.701Z,2.55
2023-04-10T12:51:17.258Z,3.4625000000000004
2023-04-10T12:54:35.080Z,3
2023-04-10T12:57:26.236Z,3.15
2023-04-10T13:01:19.287Z,2.9749999999999996
2023-04-10T13:04:19.132Z,3.075
2023-04-10T13:07:18.699Z,3.5375
2023-04-10T13:11:19.368Z,3.0374999999999996
2023-04-10T13:14:17.985Z,3.7
2023-04-10T13:17:17.354Z,2.775
2023-04-10T13:21:22.891Z,3.5125
2023-04-10T13:24:17.273Z,3.05
2023-04-10T13:27:17.393Z,2.45
2023-04-10T13:31:16.733Z,3.2874999999999996
2023-04-10T13:34:16.750Z,4.975
2023-04-10T13:37:16.619Z,4.125
2023-04-10T13:41:18.447Z,4.737500000000001
2023-04-10T13:44:17.979Z,4.762499999999999
2023-04-10T13:47:17.191Z,5.15
2023-04-10T13:51:16.290Z,3.2875
2023-04-10T13:54:17.656Z,3.1
2023-04-10T13:57:16.428Z,3.3375
2023-04-10T14:01:16.692Z,21.3875
2023-04-10T14:04:17.382Z,5.9875
2023-04-10T14:07:18.040Z,3.825
2023-04-10T14:11:17.165Z,2.7625
2023-04-10T14:14:17.293Z,3.1375
2023-04-10T14:17:17.272Z,2.4749999999999996
2023-04-10T14:21:18.717Z,2.1125
2023-04-10T14:24:17.064Z,3.1875
2023-04-10T14:27:17.354Z,3.3125
2023-04-10T14:31:16.597Z,2.5625
2023-04-10T14:34:17.224Z,2.65
2023-04-10T14:37:19.417Z,2.5125
2023-04-10T14:41:16.582Z,3.325
2023-04-10T14:44:16.529Z,2.2875
2023-04-10T14:47:16.923Z,2.5125
2023-04-10T14:51:16.772Z,9.3375
2023-04-10T14:54:17.544Z,6
2023-04-10T14:57:17.680Z,5.575
2023-04-10T15:01:16.898Z,2.8625
2023-04-10T15:04:16.912Z,2.7874999999999996
2023-04-10T15:07:16.977Z,3.125
2023-04-10T15:11:16.518Z,3.3125
2023-04-10T15:14:17.087Z,2.725
2023-04-10T15:17:17.099Z,5.262499999999999
2023-04-10T15:21:17.046Z,3.2375
2023-04-10T15:24:16.882Z,5.25
2023-04-10T15:27:18.496Z,2.725
2023-04-10T15:31:20.715Z,3.025
2023-04-10T15:34:16.777Z,3.1750000000000003
2023-04-10T15:37:16.792Z,2.9875
2023-04-10T15:41:17.231Z,2.3875
2023-04-10T15:44:17.294Z,3.4625000000000004
2023-04-10T15:47:17.205Z,2.8
2023-04-10T15:51:16.600Z,5.25
2023-04-10T15:54:16.833Z,2.5875
2023-04-10T15:57:16.765Z,2.4125
2023-04-10T16:01:16.502Z,3.675
2023-04-10T16:04:17.044Z,2.825
2023-04-10T16:07:17.190Z,3.0749999999999997
2023-04-10T16:11:16.494Z,4.025
2023-04-10T16:14:19.214Z,3.45
2023-04-10T16:17:16.992Z,6.4625
2023-04-10T16:21:16.766Z,4.525
2023-04-10T16:24:17.085Z,4.5
2023-04-10T16:27:16.894Z,4.275
2023-04-10T16:31:17.135Z,4.5874999999999995
2023-04-10T16:34:17.415Z,5.237500000000001
2023-04-10T16:37:17.250Z,6.0875
2023-04-10T16:41:18.031Z,5.55
2023-04-10T16:44:16.292Z,4.475
2023-04-10T16:47:16.401Z,4.125
2023-04-10T16:51:17.568Z,3.6625
2023-04-10T16:54:17.442Z,3.9124999999999996
2023-04-10T16:57:17.241Z,3.8750000000000004
2023-04-10T17:01:17.511Z,4.675
2023-04-10T17:04:18.354Z,3.725
2023-04-10T17:07:17.168Z,4.35
2023-04-10T17:11:16.604Z,4.4
2023-04-10T17:14:16.703Z,4.8125
2023-04-10T17:17:16.874Z,4.825
2023-04-10T17:21:17.806Z,5.6625
2023-04-10T17:24:19.719Z,4.574999999999999
2023-04-10T17:27:18.453Z,5.5375
2023-04-10T17:31:19.056Z,4.762499999999999
2023-04-10T17:34:17.722Z,5.4625
2023-04-10T17:37:20.436Z,5.074999999999999
2023-04-10T17:41:16.576Z,4.9875
2023-04-10T17:44:16.606Z,5.675000000000001
2023-04-10T17:47:17.528Z,5.112500000000001
2023-04-10T17:51:16.676Z,7.3125
2023-04-10T17:54:17.060Z,5.1125
2023-04-10T17:57:17.233Z,7.512499999999999
2023-04-10T18:01:25.807Z,7.0249999999999995
2023-04-10T18:04:17.266Z,6.6
2023-04-10T18:07:17.188Z,6.699999999999999
2023-04-10T18:21:18.412Z,7.3375
2023-04-10T18:24:19.202Z,7.425
2023-04-10T18:27:19.220Z,6.75
2023-04-10T18:31:17.958Z,6.5375
2023-04-10T18:34:17.262Z,6.2
2023-04-10T18:37:17.417Z,7.525
2023-04-10T18:41:16.056Z,6.862500000000001
2023-04-10T18:44:16.433Z,7.15
2023-04-10T18:47:16.589Z,9.537500000000001
2023-04-10T18:51:16.671Z,8.775
2023-04-10T18:54:16.991Z,8.3125
2023-04-10T18:57:17.009Z,6.9125
2023-04-10T19:01:18.092Z,7.975
2023-04-10T19:04:17.120Z,9.674999999999999
2023-04-10T19:07:17.054Z,8.7625
2023-04-10T19:11:16.376Z,12.1125
2023-04-10T19:14:16.554Z,36.4375
2023-04-10T19:17:16.543Z,36.1
2023-04-10T19:21:16.479Z,13.7625
2023-04-10T19:24:16.754Z,10.125
2023-04-10T19:27:16.675Z,7.3375
2023-04-10T19:31:16.494Z,7.2875
2023-04-10T19:34:16.474Z,9.337499999999999
2023-04-10T19:37:16.904Z,11.912500000000001
2023-04-10T19:41:17.208Z,8.7
2023-04-10T19:44:17.341Z,9.912500000000001
2023-04-10T19:47:18.314Z,7.612500000000001
2023-04-10T19:51:16.834Z,7.2
2023-04-10T19:54:17.047Z,7.1375
2023-04-10T19:57:17.272Z,6.45
2023-04-10T20:01:16.805Z,6.5125
2023-04-10T20:04:17.303Z,6.25
2023-04-10T20:07:17.058Z,17.6875
2023-04-10T20:11:17.428Z,9.825
2023-04-10T20:14:18.106Z,8.15
2023-04-10T20:17:17.935Z,7.325
2023-04-10T20:21:18.521Z,8.850000000000001
2023-04-10T20:24:17.410Z,5.550000000000001
2023-04-10T20:27:17.416Z,5.9375
2023-04-10T20:31:16.852Z,7.1375
2023-04-10T20:34:17.785Z,8.775
2023-04-10T20:37:22.035Z,7.137499999999999
2023-04-10T20:41:16.428Z,8.912500000000001
2023-04-10T20:44:16.724Z,10.625
2023-04-10T20:47:16.660Z,10.125
2023-04-10T20:51:16.637Z,8.625
2023-04-10T20:54:19.187Z,9.35
2023-04-10T20:57:16.777Z,8.3
2023-04-10T21:01:16.640Z,8.649999999999999
2023-04-10T21:04:16.667Z,7.237500000000001
2023-04-10T21:07:16.877Z,9.8875
2023-04-10T21:11:16.412Z,7.525
2023-04-10T21:14:16.755Z,6.95
2023-04-10T21:17:18.340Z,7.3625
2023-04-10T21:21:16.787Z,9.9875
2023-04-10T21:24:16.904Z,8.325000000000001
2023-04-10T21:27:16.994Z,7.9375
2023-04-10T21:31:17.337Z,7.3125
2023-04-10T21:34:17.672Z,7.362500000000001
2023-04-10T21:37:17.784Z,6.5125
2023-04-10T21:41:17.053Z,7.875
2023-04-10T21:44:17.738Z,9.05
2023-04-10T21:47:17.195Z,7.35
2023-04-10T21:51:16.974Z,8.3625
2023-04-10T21:54:17.468Z,8.475000000000001
2023-04-10T21:57:17.191Z,10.1
2023-04-10T22:01:16.790Z,14.75
2023-04-10T22:04:17.400Z,7.925000000000001
2023-04-10T22:07:17.267Z,7.237500000000001
2023-04-10T22:11:16.414Z,7.0875
2023-04-10T22:14:18.826Z,7.7125
2023-04-10T22:17:16.554Z,7.987500000000001
2023-04-10T22:21:16.379Z,8.4125
2023-04-10T22:24:16.711Z,9.8
2023-04-10T22:27:16.703Z,7.525
2023-04-10T22:31:17.351Z,8.75
2023-04-10T22:34:16.272Z,8.475
2023-04-10T22:37:16.430Z,9.712499999999999
2023-04-10T22:41:16.476Z,9.350000000000001
2023-04-10T22:44:16.572Z,7.925
2023-04-10T22:47:16.577Z,6.35
2023-04-10T22:51:16.881Z,9.1875
2023-04-10T22:54:16.741Z,9.45
2023-04-10T22:57:16.763Z,8.1375
2023-04-10T23:01:16.440Z,10.125
2023-04-10T23:04:16.938Z,7.9875
2023-04-10T23:07:16.873Z,7.2
2023-04-10T23:11:16.903Z,8.85
2023-04-10T23:14:17.355Z,9.25
2023-04-10T23:17:18.899Z,9.05
2023-04-10T23:21:16.820Z,6.9125
2023-04-10T23:24:17.148Z,8.7625
2023-04-10T23:27:17.006Z,8.2625
2023-04-10T23:31:16.994Z,8.174999999999999
2023-04-10T23:34:17.006Z,8.2375
2023-04-10T23:37:17.037Z,10.55
2023-04-10T23:41:16.302Z,8.9125
2023-04-10T23:44:16.771Z,7.5375
2023-04-10T23:47:16.657Z,8.725000000000001
2023-04-10T23:51:16.454Z,14.587499999999999
2023-04-10T23:54:16.550Z,8.275
2023-04-10T23:57:16.653Z,7.3125
